Time;durP1;ratioP1;P1;durP2;ratioP2;P2;SDS_P1;SDS_P2;PMS_P1;PMS_P2;Temp;Humidity;BMP_temperature;BMP_pressure;BME280_temperature;BME280_humidity;BME280_pressure;Samples;Min_cycle;Max_cycle;Signal;HPM_P1;HPM_P2
2021/06/24 00:01:04;;;;;;;11.43;6.90;;;17.60;99.90;;;;;;5058002;28;20076;-82
2021/06/24 00:03:32;;;;;;;7.30;6.57;;;17.60;99.90;;;;;;5079042;28;20048;-83
2021/06/24 00:06:00;;;;;;;12.68;7.32;;;17.60;99.90;;;;;;5064402;28;20485;-83
2021/06/24 00:08:28;;;;;;;7.25;6.55;;;17.60;99.90;;;;;;5057823;28;20041;-83
2021/06/24 00:10:57;;;;;;;9.63;7.20;;;17.60;99.90;;;;;;5057782;28;20041;-83
2021/06/24 00:13:25;;;;;;;7.95;6.22;;;17.70;99.90;;;;;;5057620;28;20053;-83
2021/06/24 00:15:52;;;;;;;8.63;6.25;;;17.70;99.90;;;;;;5057655;28;20044;-83
2021/06/24 00:18:20;;;;;;;7.63;6.93;;;17.70;99.90;;;;;;5057479;28;20524;-83
2021/06/24 00:20:48;;;;;;;10.50;6.78;;;17.60;99.90;;;;;;5057306;28;20052;-83
2021/06/24 00:23:15;;;;;;;11.75;6.55;;;17.70;99.90;;;;;;5075227;28;20041;-83
2021/06/24 00:25:41;;;;;;;7.57;6.78;;;17.70;99.90;;;;;;5057243;28;20044;-82
2021/06/24 00:28:14;;;;;;;7.72;6.50;;;17.60;99.90;;;;;;5057194;28;20530;-83
2021/06/24 00:30:45;;;;;;;9.65;6.90;;;17.60;99.90;;;;;;5075038;28;20059;-83
2021/06/24 00:33:12;;;;;;;8.52;7.60;;;17.60;99.90;;;;;;5057290;28;20051;-83
2021/06/24 00:35:39;;;;;;;9.35;7.28;;;17.60;99.90;;;;;;5057071;28;20135;-83
2021/06/24 00:38:07;;;;;;;10.38;7.32;;;17.60;99.90;;;;;;5057630;28;20045;-83
2021/06/24 00:40:36;;;;;;;8.85;6.90;;;17.60;99.90;;;;;;5057231;28;20055;-83
2021/06/24 00:43:09;;;;;;;9.68;7.07;;;17.50;99.90;;;;;;5057430;28;20087;-83
2021/06/24 00:45:37;;;;;;;9.95;7.05;;;17.50;99.90;;;;;;5057384;28;20044;-83
2021/06/24 00:48:06;;;;;;;8.93;6.68;;;17.50;99.90;;;;;;5075271;28;20064;-84
2021/06/24 00:50:34;;;;;;;8.10;6.65;;;17.50;99.90;;;;;;5056758;28;20055;-83
2021/06/24 00:53:01;;;;;;;10.20;6.97;;;17.50;99.90;;;;;;5074740;28;20477;-83
2021/06/24 00:55:44;;;;;;;9.68;6.47;;;17.50;99.90;;;;;;5074718;28;20058;-83
2021/06/24 00:58:25;;;;;;;7.90;6.82;;;17.50;99.90;;;;;;5057616;28;20139;-83
2021/06/24 01:00:54;;;;;;;8.13;6.95;;;17.40;99.90;;;;;;5057046;28;20048;-83
2021/06/24 01:03:22;;;;;;;8.93;7.18;;;17.50;99.90;;;;;;5057101;28;20048;-83
2021/06/24 01:05:49;;;;;;;11.52;8.30;;;17.50;99.90;;;;;;5074524;28;20530;-83
2021/06/24 01:08:18;;;;;;;8.90;7.78;;;17.40;99.90;;;;;;5057127;28;20087;-83
2021/06/24 01:10:46;;;;;;;9.90;6.97;;;17.30;99.90;;;;;;5056911;28;20389;-83
2021/06/24 01:13:14;;;;;;;11.07;6.72;;;17.40;99.90;;;;;;5057040;28;20552;-82
2021/06/24 01:15:41;;;;;;;11.60;7.30;;;17.40;99.90;;;;;;5056648;28;20144;-83
2021/06/24 01:18:09;;;;;;;9.20;6.63;;;17.40;99.90;;;;;;5074266;28;20109;-83
2021/06/24 01:20:36;;;;;;;8.75;7.00;;;17.40;99.90;;;;;;5056582;28;20404;-83
2021/06/24 01:23:05;;;;;;;10.32;7.60;;;17.40;99.90;;;;;;5081780;28;20075;-83
2021/06/24 01:25:32;;;;;;;7.72;6.93;;;17.40;99.90;;;;;;5059379;28;20127;-83
2021/06/24 01:28:02;;;;;;;7.90;6.97;;;17.40;99.90;;;;;;5056771;28;20048;-83
2021/06/24 01:30:28;;;;;;;10.48;6.68;;;17.40;99.90;;;;;;5056447;28;20514;-83
2021/06/24 01:32:57;;;;;;;7.20;6.10;;;17.50;99.90;;;;;;5056427;28;20049;-83
2021/06/24 01:35:27;;;;;;;11.27;7.60;;;17.50;99.90;;;;;;5074137;28;20052;-84
2021/06/24 01:38:03;;;;;;;7.07;6.43;;;17.50;99.90;;;;;;5056377;28;20094;-83
2021/06/24 01:40:30;;;;;;;8.77;7.07;;;17.40;99.90;;;;;;5056283;28;20048;-84
2021/06/24 01:42:58;;;;;;;7.53;6.93;;;17.40;99.90;;;;;;5056412;28;20048;-82
2021/06/24 01:45:26;;;;;;;7.90;7.10;;;17.40;99.90;;;;;;5073564;28;20052;-83
2021/06/24 01:47:53;;;;;;;8.30;7.30;;;17.40;99.90;;;;;;5056112;28;20136;-83
2021/06/24 01:50:20;;;;;;;7.50;6.80;;;17.40;99.90;;;;;;5056272;28;20052;-82
2021/06/24 01:52:48;;;;;;;10.00;7.88;;;17.40;99.90;;;;;;5056213;28;20048;-83
2021/06/24 01:55:16;;;;;;;8.50;6.97;;;17.40;99.90;;;;;;5073563;28;20088;-83
2021/06/24 01:57:43;;;;;;;7.30;6.70;;;17.40;99.90;;;;;;5055903;28;20047;-83
2021/06/24 02:00:12;;;;;;;10.02;7.70;;;17.40;99.90;;;;;;5073411;28;20088;-83
2021/06/24 02:02:41;;;;;;;11.05;7.65;;;17.30;99.90;;;;;;5072389;28;20044;-83
2021/06/24 02:05:08;;;;;;;10.50;7.82;;;17.30;99.90;;;;;;5055646;28;20052;-83
2021/06/24 02:07:39;;;;;;;9.05;8.15;;;17.30;99.90;;;;;;5073393;28;20049;-83
2021/06/24 02:10:07;;;;;;;11.18;8.50;;;17.20;99.90;;;;;;5055882;28;20080;-83
2021/06/24 02:12:35;;;;;;;10.50;8.10;;;17.20;99.90;;;;;;5055504;28;20135;-83
2021/06/24 02:15:08;;;;;;;11.57;8.20;;;17.20;99.90;;;;;;5055541;28;20492;-83
2021/06/24 02:17:35;;;;;;;12.75;8.82;;;17.20;99.90;;;;;;5052000;28;20049;-83
2021/06/24 02:20:12;;;;;;;17.83;9.55;;;17.20;99.90;;;;;;5052261;28;20049;-83
2021/06/24 02:22:39;;;;;;;9.98;8.88;;;17.20;99.90;;;;;;5052008;28;20055;-83
2021/06/24 02:25:08;;;;;;;12.82;9.05;;;17.20;99.90;;;;;;5051990;28;20082;-83
2021/06/24 02:27:35;;;;;;;12.25;9.23;;;17.20;99.90;;;;;;5052095;28;20408;-83
2021/06/24 02:30:03;;;;;;;11.13;8.30;;;17.10;99.90;;;;;;5052119;28;20400;-83
2021/06/24 02:32:30;;;;;;;14.18;8.57;;;17.10;99.90;;;;;;5051817;28;20412;-84
2021/06/24 02:34:57;;;;;;;11.00;7.88;;;17.10;99.90;;;;;;5053096;28;20531;-83
2021/06/24 02:37:24;;;;;;;13.40;8.30;;;17.00;99.90;;;;;;5052897;28;20051;-83
2021/06/24 02:39:50;;;;;;;13.65;8.55;;;17.00;99.90;;;;;;5056317;28;20084;-83
2021/06/24 02:42:17;;;;;;;11.38;8.35;;;17.00;99.90;;;;;;5057752;28;20418;-83
2021/06/24 02:44:44;;;;;;;15.43;8.50;;;16.90;99.90;;;;;;5051965;28;20056;-84
2021/06/24 02:47:11;;;;;;;12.73;8.38;;;16.90;99.90;;;;;;5051538;28;20053;-84
2021/06/24 02:49:42;;;;;;;8.30;7.57;;;16.90;99.90;;;;;;5051520;28;20053;-84
2021/06/24 02:52:09;;;;;;;12.07;7.82;;;16.80;99.90;;;;;;5052776;28;20087;-83
2021/06/24 02:54:37;;;;;;;10.02;7.88;;;16.90;99.90;;;;;;5051474;28;20059;-83
2021/06/24 02:57:05;;;;;;;10.60;7.80;;;16.90;99.90;;;;;;5052633;28;20521;-84
2021/06/24 02:59:31;;;;;;;10.18;6.97;;;16.90;99.90;;;;;;5051351;28;20049;-83
2021/06/24 03:01:58;;;;;;;10.38;6.72;;;16.90;99.90;;;;;;5051445;28;20045;-83
2021/06/24 03:04:25;;;;;;;10.57;7.72;;;17.00;99.90;;;;;;5052491;28;20049;-84
2021/06/24 03:06:53;;;;;;;11.98;7.50;;;16.90;99.90;;;;;;5052408;28;20053;-83
2021/06/24 03:09:20;;;;;;;11.02;7.47;;;16.90;99.90;;;;;;5052552;28;20063;-83
2021/06/24 03:11:48;;;;;;;8.70;7.70;;;16.90;99.90;;;;;;5052695;28;20114;-83
2021/06/24 03:14:15;;;;;;;12.60;7.35;;;16.90;99.90;;;;;;5051360;28;20100;-83
2021/06/24 03:16:42;;;;;;;8.23;6.38;;;17.00;99.90;;;;;;5052538;28;20052;-84
2021/06/24 03:19:09;;;;;;;9.85;6.97;;;17.00;99.90;;;;;;5072376;28;20060;-83
2021/06/24 03:21:37;;;;;;;8.27;6.32;;;17.00;99.90;;;;;;5054797;28;20060;-83
2021/06/24 03:24:04;;;;;;;7.65;6.60;;;17.00;99.90;;;;;;5055019;28;20049;-83
2021/06/24 03:26:31;;;;;;;10.35;6.75;;;17.00;99.90;;;;;;5054529;28;20136;-84
2021/06/24 03:28:58;;;;;;;7.90;6.65;;;16.90;99.90;;;;;;5054719;28;20049;-83
2021/06/24 03:31:25;;;;;;;9.57;6.93;;;16.90;99.90;;;;;;5072076;28;20423;-83
2021/06/24 03:33:52;;;;;;;9.02;7.10;;;16.90;99.90;;;;;;5072285;28;20076;-83
2021/06/24 03:36:22;;;;;;;11.52;6.63;;;16.90;99.90;;;;;;5054327;28;20051;-83
2021/06/24 03:38:49;;;;;;;9.13;6.28;;;16.80;99.90;;;;;;5054657;28;20083;-84
2021/06/24 03:41:23;;;;;;;11.18;7.50;;;16.70;99.90;;;;;;5072208;28;20049;-84
2021/06/24 03:43:51;;;;;;;10.50;7.10;;;16.80;99.90;;;;;;5072191;28;20114;-83
2021/06/24 03:46:19;;;;;;;6.95;6.28;;;16.80;99.90;;;;;;5071973;28;20416;-84
2021/06/24 03:48:46;;;;;;;7.10;6.40;;;16.80;99.90;;;;;;5054599;28;20094;-83
2021/06/24 03:51:13;;;;;;;7.78;6.97;;;16.80;99.90;;;;;;5054472;28;20046;-83
2021/06/24 03:53:40;;;;;;;8.15;7.30;;;16.80;99.90;;;;;;5072101;28;20052;-83
2021/06/24 03:56:08;;;;;;;8.45;7.13;;;16.80;99.90;;;;;;5054191;28;20055;-83
2021/06/24 03:58:35;;;;;;;12.65;7.40;;;16.80;99.90;;;;;;5071893;28;20052;-83
2021/06/24 04:01:02;;;;;;;9.13;6.47;;;16.80;99.90;;;;;;5055242;28;20048;-83
2021/06/24 04:03:29;;;;;;;9.55;6.70;;;16.80;99.90;;;;;;5056242;28;20059;-84
2021/06/24 04:05:56;;;;;;;6.78;6.05;;;16.80;99.90;;;;;;5071885;28;20475;-83
2021/06/24 04:08:23;;;;;;;8.60;6.45;;;16.80;99.90;;;;;;5054282;28;20538;-84
2021/06/24 04:11:01;;;;;;;6.57;6.00;;;16.90;99.90;;;;;;5056004;28;20049;-84
2021/06/24 04:13:28;;;;;;;11.52;6.82;;;16.90;99.90;;;;;;5071861;28;20440;-84
2021/06/24 04:15:55;;;;;;;11.70;6.95;;;16.90;99.90;;;;;;5054101;28;20066;-83
2021/06/24 04:18:21;;;;;;;9.52;6.30;;;16.90;99.90;;;;;;5054028;28;20103;-84
2021/06/24 04:20:48;;;;;;;6.63;5.90;;;16.90;99.90;;;;;;5072033;28;20592;-83
2021/06/24 04:23:15;;;;;;;7.13;6.22;;;17.00;99.90;;;;;;5071729;28;20051;-84
2021/06/24 04:25:42;;;;;;;9.50;7.00;;;17.00;99.90;;;;;;5056106;28;20048;-83
2021/06/24 04:28:09;;;;;;;8.93;6.95;;;17.00;99.90;;;;;;5057777;28;20040;-84
2021/06/24 04:30:36;;;;;;;13.70;7.80;;;17.00;99.90;;;;;;5075397;28;20054;-84
2021/06/24 04:33:02;;;;;;;7.28;6.50;;;17.00;99.90;;;;;;5057699;28;20044;-84
2021/06/24 04:35:29;;;;;;;9.85;6.72;;;17.10;99.90;;;;;;5057523;28;20052;-84
2021/06/24 04:37:59;;;;;;;7.38;6.65;;;17.10;99.90;;;;;;5057920;28;20048;-84
2021/06/24 04:40:26;;;;;;;11.88;6.65;;;17.20;99.90;;;;;;5057419;28;20583;-84
2021/06/24 04:42:52;;;;;;;9.25;6.47;;;17.10;99.90;;;;;;5057635;28;20044;-84
2021/06/24 04:45:19;;;;;;;8.57;6.82;;;17.00;99.90;;;;;;5074957;28;20062;-83
2021/06/24 04:47:48;;;;;;;7.85;5.90;;;17.00;99.90;;;;;;5057283;28;20048;-83
2021/06/24 04:50:16;;;;;;;7.55;5.57;;;17.10;99.90;;;;;;5057500;28;20044;-84
2021/06/24 04:52:43;;;;;;;5.43;4.93;;;17.10;99.90;;;;;;5074863;28;20110;-84
2021/06/24 04:55:10;;;;;;;5.00;4.60;;;17.00;99.90;;;;;;5074668;28;20044;-84
2021/06/24 04:57:37;;;;;;;6.55;4.55;;;17.10;99.90;;;;;;5074644;28;20048;-84
2021/06/24 05:00:05;;;;;;;7.03;5.35;;;17.10;99.90;;;;;;5074880;28;20044;-83
2021/06/24 05:02:32;;;;;;;6.63;4.65;;;17.20;99.90;;;;;;5074807;28;20052;-83
2021/06/24 05:04:59;;;;;;;7.13;4.50;;;17.10;99.90;;;;;;5057040;28;20055;-84
2021/06/24 05:07:26;;;;;;;5.57;4.13;;;16.90;99.90;;;;;;5056782;28;20052;-83
2021/06/24 05:09:53;;;;;;;5.40;4.50;;;17.00;99.90;;;;;;5056958;28;20388;-83
2021/06/24 05:12:24;;;;;;;5.55;3.70;;;17.00;99.90;;;;;;5057353;28;20097;-83
2021/06/24 05:14:52;;;;;;;7.70;3.95;;;17.00;99.90;;;;;;5074517;28;20053;-84
2021/06/24 05:17:19;;;;;;;5.28;3.65;;;17.00;99.90;;;;;;5056843;28;20113;-83
2021/06/24 05:19:46;;;;;;;4.90;3.10;;;17.10;99.90;;;;;;5076312;28;20054;-83
2021/06/24 05:22:14;;;;;;;8.02;3.55;;;17.10;99.90;;;;;;5059105;28;20049;-83
2021/06/24 05:24:41;;;;;;;4.50;3.75;;;17.10;99.90;;;;;;5057117;28;20505;-83
2021/06/24 05:27:08;;;;;;;6.10;3.95;;;17.00;99.90;;;;;;5057000;28;20049;-83
2021/06/24 05:29:35;;;;;;;8.98;3.78;;;16.90;99.90;;;;;;5056958;28;20131;-83
2021/06/24 05:32:02;;;;;;;6.05;3.10;;;16.90;99.90;;;;;;5057003;28;20051;-84
2021/06/24 05:34:31;;;;;;;3.53;3.10;;;16.70;99.90;;;;;;5056848;28;20408;-83
2021/06/24 05:37:00;;;;;;;5.07;3.75;;;16.80;99.90;;;;;;5056666;28;20377;-83
2021/06/24 05:39:27;;;;;;;6.50;3.35;;;16.70;99.90;;;;;;5056566;28;20511;-83
2021/06/24 05:41:57;;;;;;;6.03;3.20;;;16.60;99.90;;;;;;5056520;28;20052;-83
2021/06/24 05:44:27;;;;;;;5.25;3.65;;;16.50;99.90;;;;;;5056640;28;20050;-84
2021/06/24 05:46:54;;;;;;;5.57;3.58;;;16.50;99.90;;;;;;5056302;28;20056;-83
2021/06/24 05:49:22;;;;;;;5.78;3.53;;;16.40;99.90;;;;;;5056279;28;20044;-83
2021/06/24 05:51:48;;;;;;;5.15;3.95;;;16.40;99.90;;;;;;5074219;28;20052;-83
2021/06/24 05:54:15;;;;;;;4.07;3.17;;;16.40;99.90;;;;;;5056526;28;20140;-82
2021/06/24 05:56:42;;;;;;;4.22;3.15;;;16.30;99.90;;;;;;5056410;28;20128;-83
2021/06/24 05:59:09;;;;;;;6.90;3.03;;;16.20;99.90;;;;;;5056188;28;20050;-83
2021/06/24 06:01:43;;;;;;;5.50;3.78;;;16.10;99.90;;;;;;5056109;28;20135;-83
2021/06/24 06:04:10;;;;;;;;;;;16.10;99.90;;;;;;5056824;28;20048;-82
2021/06/24 06:06:37;;;;;;;4.55;3.30;;;16.10;99.90;;;;;;5056090;28;19924;-82
2021/06/24 06:09:05;;;;;;;6.00;3.63;;;16.20;99.90;;;;;;5074028;28;20090;-83
2021/06/24 06:11:32;;;;;;;6.32;3.80;;;16.20;99.90;;;;;;5073620;28;20396;-84
2021/06/24 06:13:59;;;;;;;10.45;4.30;;;16.20;99.90;;;;;;5056112;28;20050;-84
2021/06/24 06:16:27;;;;;;;4.18;3.42;;;16.20;99.90;;;;;;5073765;28;20049;-83
2021/06/24 06:18:56;;;;;;;5.43;3.45;;;16.10;99.90;;;;;;5055987;28;20082;-84
2021/06/24 06:21:24;;;;;;;3.70;3.25;;;16.20;99.90;;;;;;5073396;28;20055;-83
2021/06/24 06:23:50;;;;;;;4.65;2.75;;;16.30;99.90;;;;;;5073659;28;20047;-83
2021/06/24 06:26:17;;;;;;;4.30;2.60;;;16.50;99.90;;;;;;5073441;28;20050;-83
2021/06/24 06:28:44;;;;;;;5.63;2.88;;;16.60;99.90;;;;;;5055864;28;20044;-83
2021/06/24 06:31:11;;;;;;;4.82;2.70;;;16.70;99.90;;;;;;5055724;28;20082;-83
2021/06/24 06:33:38;;;;;;;5.10;2.97;;;16.70;99.90;;;;;;5055634;28;20040;-83
2021/06/24 06:36:05;;;;;;;6.68;2.72;;;16.90;99.90;;;;;;5055910;28;20067;-83
2021/06/24 06:38:31;;;;;;;4.68;2.20;;;17.10;99.90;;;;;;5056539;28;20048;-83
2021/06/24 06:40:58;;;;;;;4.60;2.40;;;17.20;99.90;;;;;;5058892;28;20051;-83
2021/06/24 06:43:26;;;;;;;5.47;2.22;;;17.20;99.90;;;;;;5055400;28;20408;-83
2021/06/24 06:45:52;;;;;;;3.30;2.60;;;17.20;99.90;;;;;;5072981;28;20144;-85
2021/06/24 06:48:20;;;;;;;2.33;2.00;;;17.50;99.90;;;;;;5072656;28;20492;-84
2021/06/24 06:50:47;;;;;;;6.20;2.63;;;17.50;99.90;;;;;;5055246;28;20044;-84
2021/06/24 06:53:15;;;;;;;3.67;1.95;;;17.60;99.90;;;;;;5055207;28;20052;-85
2021/06/24 06:55:42;;;;;;;3.67;1.98;;;17.50;99.90;;;;;;5055058;28;20569;-83
2021/06/24 06:58:08;;;;;;;5.85;2.20;;;17.60;99.90;;;;;;5073016;28;20403;-84
2021/06/24 07:00:35;;;;;;;3.83;1.80;;;17.70;99.90;;;;;;5054998;28;20055;-83
2021/06/24 07:03:02;;;;;;;3.20;1.90;;;17.60;99.90;;;;;;5055138;28;20048;-83
2021/06/24 07:05:29;;;;;;;3.10;1.90;;;17.60;99.90;;;;;;5054866;28;20128;-84
2021/06/24 07:07:57;;;;;;;5.15;2.38;;;17.70;99.90;;;;;;5072740;28;20052;-83
2021/06/24 07:10:25;;;;;;;4.13;1.92;;;17.80;99.90;;;;;;5072736;28;20126;-84
2021/06/24 07:12:53;;;;;;;3.47;2.22;;;17.90;99.90;;;;;;5054887;28;20051;-85
2021/06/24 07:15:19;;;;;;;2.13;1.92;;;17.90;99.90;;;;;;5054835;28;20084;-84
2021/06/24 07:17:46;;;;;;;7.22;2.25;;;17.90;99.90;;;;;;5054989;28;20060;-83
2021/06/24 07:20:14;;;;;;;2.22;1.98;;;17.80;99.90;;;;;;5055340;28;20080;-83
2021/06/24 07:22:41;;;;;;;2.53;2.22;;;17.90;99.90;;;;;;5054692;28;20148;-82
2021/06/24 07:25:09;;;;;;;3.10;2.20;;;17.60;99.90;;;;;;5072809;28;20132;-84
2021/06/24 07:27:37;;;;;;;7.47;2.47;;;17.60;99.90;;;;;;5054920;28;20053;-84
2021/06/24 07:30:06;;;;;;;5.47;2.58;;;17.60;99.90;;;;;;5055094;28;20048;-83
2021/06/24 07:32:33;;;;;;;3.67;2.47;;;17.60;99.90;;;;;;5072651;28;20044;-83
2021/06/24 07:35:00;;;;;;;6.03;2.60;;;17.60;99.90;;;;;;5072735;28;20055;-83
2021/06/24 07:37:27;;;;;;;5.15;2.53;;;17.40;99.90;;;;;;5072625;28;20087;-83
2021/06/24 07:39:53;;;;;;;6.35;2.58;;;17.40;99.90;;;;;;5072539;28;20048;-83
2021/06/24 07:42:20;;;;;;;3.65;2.83;;;17.40;99.90;;;;;;5054875;28;20076;-83
2021/06/24 07:44:48;;;;;;;4.63;3.50;;;17.30;99.90;;;;;;5072690;28;20051;-83
2021/06/24 07:47:18;;;;;;;10.68;3.60;;;17.10;99.90;;;;;;5072476;28;20052;-83
2021/06/24 07:49:46;;;;;;;6.68;3.80;;;17.00;99.90;;;;;;5054970;28;20047;-84
2021/06/24 07:52:14;;;;;;;4.28;3.53;;;16.90;99.90;;;;;;5054700;28;20053;-83
2021/06/24 07:54:40;;;;;;;7.20;3.65;;;16.70;99.90;;;;;;5054715;28;20049;-83
2021/06/24 07:57:09;;;;;;;5.22;3.72;;;16.70;99.90;;;;;;5055541;28;20055;-83
2021/06/24 07:59:37;;;;;;;9.75;4.35;;;16.70;99.90;;;;;;5055600;28;20464;-83
2021/06/24 08:02:05;;;;;;;6.22;3.95;;;16.60;99.90;;;;;;5075555;28;20049;-83
2021/06/24 08:04:33;;;;;;;8.50;4.10;;;16.60;99.90;;;;;;5057684;28;20056;-83
2021/06/24 08:07:00;;;;;;;11.07;4.85;;;16.50;99.90;;;;;;5057668;28;20519;-83
2021/06/24 08:09:28;;;;;;;6.68;5.00;;;16.50;99.90;;;;;;5057923;28;20132;-83
2021/06/24 08:11:54;;;;;;;8.25;5.03;;;16.40;99.90;;;;;;5076007;28;20050;-83
2021/06/24 08:14:23;;;;;;;10.40;5.28;;;16.40;99.90;;;;;;5058136;28;20085;-83
2021/06/24 08:16:50;;;;;;;8.70;5.13;;;16.40;99.90;;;;;;5057673;28;20044;-83
2021/06/24 08:19:17;;;;;;;9.07;4.88;;;16.30;99.90;;;;;;5058119;28;20555;-85
2021/06/24 08:21:45;;;;;;;6.43;4.85;;;16.30;99.90;;;;;;5075533;28;20045;-83
2021/06/24 08:24:11;;;;;;;11.75;5.32;;;16.40;99.90;;;;;;5058024;28;20214;-83
2021/06/24 08:26:38;;;;;;;10.80;4.75;;;16.40;99.90;;;;;;5075583;28;20089;-83
2021/06/24 08:29:05;;;;;;;8.45;3.88;;;16.40;99.90;;;;;;5057736;28;20045;-83
2021/06/24 08:31:32;;;;;;;15.23;4.50;;;16.60;99.90;;;;;;5057751;28;20084;-83
2021/06/24 08:33:59;;;;;;;5.07;3.70;;;16.70;99.90;;;;;;5075464;28;20131;-83
2021/06/24 08:36:26;;;;;;;5.07;3.50;;;16.80;99.90;;;;;;5057592;28;20052;-82
2021/06/24 08:38:53;;;;;;;4.75;2.63;;;16.80;99.90;;;;;;5075269;28;20041;-83
2021/06/24 08:41:25;;;;;;;7.22;3.58;;;16.90;99.90;;;;;;5075127;28;20461;-83
2021/06/24 08:43:53;;;;;;;5.80;3.00;;;16.90;99.90;;;;;;5057473;28;20049;-82
2021/06/24 08:46:21;;;;;;;3.40;3.10;;;17.00;99.90;;;;;;5057399;28;20460;-83
2021/06/24 08:48:49;;;;;;;5.90;3.50;;;17.00;99.90;;;;;;5075139;28;20049;-83
2021/06/24 08:51:16;;;;;;;6.65;3.83;;;17.00;99.90;;;;;;5057302;28;20136;-83
2021/06/24 08:53:47;;;;;;;5.35;3.08;;;17.00;99.90;;;;;;5057350;28;20511;-83
2021/06/24 08:56:15;;;;;;;3.67;3.15;;;17.20;99.90;;;;;;5057676;28;20048;-83
2021/06/24 08:58:43;;;;;;;10.45;5.10;;;17.20;99.90;;;;;;5075410;28;20056;-84
2021/06/24 09:01:10;;;;;;;7.85;5.07;;;17.00;99.90;;;;;;5057611;28;20044;-85
2021/06/24 09:03:37;;;;;;;5.82;4.55;;;16.90;99.90;;;;;;5057320;28;20083;-85
2021/06/24 09:06:08;;;;;;;10.90;5.03;;;16.80;99.90;;;;;;5057243;28;20634;-83
2021/06/24 09:08:41;;;;;;;8.27;4.88;;;16.80;99.90;;;;;;5057106;28;20060;-84
2021/06/24 09:11:11;;;;;;;8.63;4.93;;;16.70;99.90;;;;;;5074505;28;20044;-84
2021/06/24 09:13:38;;;;;;;8.30;4.30;;;16.70;99.90;;;;;;5074719;28;20127;-83
2021/06/24 09:16:26;;;;;;;10.63;4.43;;;16.70;99.90;;;;;;5058233;28;20067;-84
2021/06/24 09:19:13;;;;;;;11.20;4.72;;;16.70;99.90;;;;;;5058119;28;20056;-83
2021/06/24 09:21:40;;;;;;;8.65;4.43;;;16.70;99.90;;;;;;5056739;28;20147;-85
2021/06/24 09:24:43;;;;;;;6.75;4.38;;;16.80;99.90;;;;;;5056915;28;20403;-83
2021/06/24 09:27:19;;;;;;;9.13;4.60;;;16.70;99.90;;;;;;5022468;28;20413;-84
2021/06/24 09:30:00;;;;;;;7.75;4.65;;;16.60;99.90;;;;;;5074326;28;20447;-84
2021/06/24 09:32:45;;;;;;;9.98;4.63;;;16.60;99.90;;;;;;5074333;28;20045;-82
2021/06/24 09:35:24;;;;;;;19.08;5.60;;;16.80;99.90;;;;;;5056544;28;20040;-83
2021/06/24 09:38:02;;;;;;;5.57;4.68;;;16.90;99.90;;;;;;5074093;28;20052;-82
2021/06/24 09:40:39;;;;;;;7.90;4.72;;;16.90;99.90;;;;;;5056275;28;20131;-83
2021/06/24 09:43:07;;;;;;;13.45;4.65;;;17.00;99.90;;;;;;5074067;28;20504;-83
2021/06/24 09:45:34;;;;;;;5.07;3.35;;;17.00;99.90;;;;;;5073995;28;20055;-83
2021/06/24 09:48:11;;;;;;;8.27;5.20;;;17.10;99.90;;;;;;5074200;28;20060;-83
2021/06/24 09:50:39;;;;;;;5.55;4.80;;;17.10;99.90;;;;;;5056238;28;20135;-83
2021/06/24 09:53:14;;;;;;;5.97;4.75;;;17.10;99.90;;;;;;5056229;28;20047;-83
2021/06/24 09:55:40;;;;;;;4.82;4.25;;;17.10;99.90;;;;;;5073738;28;20048;-83
2021/06/24 09:58:15;;;;;;;7.32;4.88;;;17.00;99.90;;;;;;5056060;28;20058;-83
2021/06/24 10:00:53;;;;;;;7.75;4.70;;;16.90;99.90;;;;;;5056063;28;20059;-83
2021/06/24 10:03:21;;;;;;;10.23;5.20;;;17.00;99.90;;;;;;5055832;28;20052;-83
2021/06/24 10:05:48;;;;;;;9.95;6.20;;;17.00;99.90;;;;;;5055848;28;20049;-83
2021/06/24 10:08:15;;;;;;;8.35;6.20;;;16.90;99.90;;;;;;5055989;28;20173;-84
2021/06/24 10:10:43;;;;;;;7.68;5.47;;;17.00;99.90;;;;;;5073481;28;20050;-83
2021/06/24 10:13:10;;;;;;;10.23;6.40;;;17.10;99.90;;;;;;5055911;28;20179;-84
2021/06/24 10:15:38;;;;;;;11.63;6.63;;;17.10;99.90;;;;;;5073343;28;20045;-83
2021/06/24 10:18:05;;;;;;;10.18;6.43;;;17.00;99.90;;;;;;5055561;28;20424;-83
2021/06/24 10:20:33;;;;;;;8.77;6.68;;;17.00;99.90;;;;;;5073497;28;20045;-83
2021/06/24 10:23:10;;;;;;;9.48;7.10;;;16.80;99.90;;;;;;5072714;28;20404;-83
2021/06/24 10:25:39;;;;;;;14.20;7.72;;;16.50;99.90;;;;;;5055434;28;20049;-83
2021/06/24 10:28:06;;;;;;;10.30;7.03;;;16.40;99.90;;;;;;5055920;28;20055;-83
2021/06/24 10:30:39;;;;;;;12.48;6.80;;;16.50;99.90;;;;;;5055921;28;20147;-83
2021/06/24 10:33:09;;;;;;;11.82;7.13;;;16.40;99.90;;;;;;5055823;28;20055;-84
2021/06/24 10:35:42;;;;;;;10.02;6.78;;;16.30;99.90;;;;;;5057334;28;20132;-83
2021/06/24 10:38:10;;;;;;;10.55;6.55;;;16.20;99.90;;;;;;5056837;28;20054;-83
2021/06/24 10:40:39;;;;;;;13.40;6.13;;;16.20;99.90;;;;;;5055509;28;20049;-83
2021/06/24 10:43:07;;;;;;;7.30;5.95;;;16.30;99.90;;;;;;5055615;28;20058;-83
2021/06/24 10:45:34;;;;;;;11.80;7.03;;;16.40;99.90;;;;;;5073160;28;20052;-83
2021/06/24 10:48:28;;;;;;;14.63;7.00;;;16.40;99.90;;;;;;5073403;28;20048;-83
2021/06/24 10:51:06;;;;;;;8.00;5.95;;;16.50;99.90;;;;;;5055222;28;20059;-83
2021/06/24 10:53:35;;;;;;;13.13;6.10;;;16.60;99.90;;;;;;5054985;28;20054;-84
2021/06/24 10:56:33;;;;;;;11.50;6.13;;;16.70;99.90;;;;;;5055017;28;20051;-84
2021/06/24 10:59:21;;;;;;;9.63;5.90;;;16.80;99.90;;;;;;5055257;28;20132;-83
2021/06/24 11:01:48;;;;;;;19.40;8.05;;;16.80;99.90;;;;;;5054623;28;20481;-83
2021/06/24 11:04:27;;;;;;;11.68;7.07;;;16.80;99.90;;;;;;5055116;28;20091;-84
2021/06/24 11:06:57;;;;;;;8.73;6.07;;;16.70;99.90;;;;;;5072659;28;20049;-83
2021/06/24 11:09:25;;;;;;;15.60;6.78;;;16.80;99.90;;;;;;5072814;28;20135;-84
2021/06/24 11:11:53;;;;;;;9.40;6.18;;;17.00;99.90;;;;;;5054756;28;20080;-83
2021/06/24 11:14:50;;;;;;;9.88;5.82;;;17.00;99.90;;;;;;5055005;28;20076;-83
2021/06/24 11:17:46;;;;;;;11.02;5.95;;;17.10;99.90;;;;;;5072361;28;20106;-83
2021/06/24 11:20:16;;;;;;;10.52;5.60;;;17.10;99.90;;;;;;5054979;28;20066;-83
2021/06/24 11:22:52;;;;;;;8.20;5.43;;;17.10;99.90;;;;;;5054857;28;20062;-83
2021/06/24 11:25:19;;;;;;;11.02;4.78;;;17.10;99.90;;;;;;5054791;28;20048;-84
2021/06/24 11:27:47;;;;;;;7.88;4.15;;;17.20;99.90;;;;;;5054804;28;20091;-83
2021/06/24 11:30:14;;;;;;;10.02;4.32;;;17.20;99.90;;;;;;5054805;28;20087;-84
2021/06/24 11:32:45;;;;;;;9.52;4.90;;;17.10;99.90;;;;;;5054673;28;20064;-83
2021/06/24 11:35:52;;;;;;;10.10;4.50;;;17.30;99.90;;;;;;5058471;28;20044;-83
2021/06/24 11:38:17;;;;;;;8.00;5.10;;;17.40;99.90;;;;;;5076917;28;20045;-83
2021/06/24 11:40:44;;;;;;;6.50;4.90;;;17.40;99.90;;;;;;5058685;28;20481;-83
2021/06/24 11:43:11;;;;;;;12.73;5.10;;;17.60;99.90;;;;;;5076216;28;20053;-83
2021/06/24 11:45:38;;;;;;;8.35;4.95;;;17.60;99.90;;;;;;5058538;28;20052;-83
2021/06/24 11:48:05;;;;;;;9.23;5.20;;;17.70;99.90;;;;;;5059183;28;20429;-82
2021/06/24 12:04:19;;;;;;;10.47;4.80;;;17.90;99.90;;;;;;5076082;28;20075;-83
2021/06/24 12:06:48;;;;;;;;;;;17.80;99.90;;;;;;5076106;28;20291;-82
2021/06/24 12:09:22;;;;;;;6.30;4.32;;;17.70;99.90;;;;;;5075499;28;20019;-82
2021/06/24 12:11:58;;;;;;;7.28;4.75;;;17.60;99.90;;;;;;5058294;28;20067;-83
2021/06/24 12:14:30;;;;;;;6.45;4.70;;;17.60;99.90;;;;;;5058109;28;20053;-83
2021/06/24 12:17:06;;;;;;;6.72;4.32;;;17.80;99.90;;;;;;5057906;28;20055;-83
2021/06/24 12:20:03;;;;;;;9.20;4.47;;;17.90;99.90;;;;;;5074993;28;20045;-82
2021/06/24 12:22:39;;;;;;;6.53;4.53;;;18.00;99.90;;;;;;5029799;28;20044;-83
2021/06/24 12:25:28;;;;;;;8.95;4.03;;;18.10;99.90;;;;;;5057351;28;20052;-83
2021/06/24 12:27:57;;;;;;;8.27;4.40;;;18.00;99.90;;;;;;5057629;28;20080;-82
2021/06/24 12:30:30;;;;;;;13.43;4.28;;;18.10;99.90;;;;;;5057526;28;20060;-83
2021/06/24 12:33:00;;;;;;;8.65;3.80;;;18.50;99.90;;;;;;5057805;28;20040;-83
2021/06/24 12:35:29;;;;;;;5.68;3.63;;;18.80;99.90;;;;;;5057144;28;20048;-83
2021/06/24 12:37:59;;;;;;;3.72;2.88;;;19.00;99.90;;;;;;5057358;28;20131;-83
2021/06/24 12:40:31;;;;;;;6.30;3.53;;;19.00;99.90;;;;;;5057587;28;20049;-85
2021/06/24 12:43:00;;;;;;;18.75;3.50;;;18.80;99.90;;;;;;5057902;28;20056;-84
2021/06/24 12:45:45;;;;;;;8.27;3.58;;;18.70;99.90;;;;;;5059406;28;20193;-85
2021/06/24 12:48:28;;;;;;;5.82;3.35;;;18.80;99.90;;;;;;5057960;28;20055;-83
2021/06/24 12:50:57;;;;;;;6.07;3.22;;;18.70;99.90;;;;;;5074796;28;20054;-82
2021/06/24 12:53:32;;;;;;;10.00;3.33;;;19.30;99.90;;;;;;5075017;28;20079;-83
2021/06/24 12:56:00;;;;;;;10.25;3.90;;;19.30;99.90;;;;;;5057316;28;20132;-84
2021/06/24 12:58:27;;;;;;;5.15;3.22;;;18.80;99.90;;;;;;5057149;28;20051;-82
2021/06/24 13:01:13;;;;;;;3.55;2.42;;;18.70;99.90;;;;;;5075085;28;20049;-82
2021/06/24 13:03:49;;;;;;;4.43;2.90;;;18.80;99.90;;;;;;5057104;28;20056;-82
2021/06/24 13:06:18;;;;;;;6.65;2.88;;;18.80;99.90;;;;;;5074742;28;20047;-83
2021/06/24 13:09:14;;;;;;;4.68;2.80;;;18.70;99.90;;;;;;5057243;28;20052;-83
2021/06/24 13:11:51;;;;;;;9.32;3.00;;;18.80;99.90;;;;;;5057486;28;20052;-85